sensor_id;sensor_type;location;lat;lon;timestamp;P1;durP1;ratioP1;P2;durP2;ratioP2
56233;SDS011;42141;53.240;6.580;2022-07-23T00:00:18;3.42;;;1.75;;
56233;SDS011;42141;53.240;6.580;2022-07-23T00:02:46;3.58;;;1.58;;
56233;SDS011;42141;53.240;6.580;2022-07-23T00:05:12;3.47;;;1.90;;
56233;SDS011;42141;53.240;6.580;2022-07-23T00:07:42;8.75;;;2.30;;
56233;SDS011;42141;53.240;6.580;2022-07-23T00:10:08;7.70;;;2.20;;
56233;SDS011;42141;53.240;6.580;2022-07-23T00:12:35;3.85;;;1.90;;
56233;SDS011;42141;53.240;6.580;2022-07-23T00:15:02;7.25;;;2.70;;
56233;SDS011;42141;53.240;6.580;2022-07-23T00:17:30;4.72;;;2.95;;
56233;SDS011;42141;53.240;6.580;2022-07-23T00:20:01;3.63;;;2.00;;
56233;SDS011;42141;53.240;6.580;2022-07-23T00:22:27;5.65;;;2.50;;
56233;SDS011;42141;53.240;6.580;2022-07-23T00:24:55;3.47;;;2.42;;
56233;SDS011;42141;53.240;6.580;2022-07-23T00:27:21;6.85;;;2.53;;
56233;SDS011;42141;53.240;6.580;2022-07-23T00:29:48;4.90;;;2.40;;
56233;SDS011;42141;53.240;6.580;2022-07-23T00:32:14;5.40;;;2.50;;
56233;SDS011;42141;53.240;6.580;2022-07-23T00:34:44;4.70;;;2.67;;
56233;SDS011;42141;53.240;6.580;2022-07-23T00:37:10;4.47;;;2.65;;
56233;SDS011;42141;53.240;6.580;2022-07-23T00:39:36;7.20;;;2.97;;
56233;SDS011;42141;53.240;6.580;2022-07-23T00:42:03;5.43;;;2.72;;
56233;SDS011;42141;53.240;6.580;2022-07-23T00:44:31;7.47;;;3.20;;
56233;SDS011;42141;53.240;6.580;2022-07-23T00:46:57;8.98;;;3.50;;
56233;SDS011;42141;53.240;6.580;2022-07-23T00:49:26;7.90;;;2.60;;
56233;SDS011;42141;53.240;6.580;2022-07-23T00:51:53;4.38;;;2.80;;
56233;SDS011;42141;53.240;6.580;2022-07-23T00:54:26;9.53;;;2.57;;
56233;SDS011;42141;53.240;6.580;2022-07-23T00:56:59;5.80;;;2.53;;
56233;SDS011;42141;53.240;6.580;2022-07-23T00:59:25;3.88;;;2.53;;
56233;SDS011;42141;53.240;6.580;2022-07-23T01:01:50;3.92;;;2.10;;
56233;SDS011;42141;53.240;6.580;2022-07-23T01:04:16;6.38;;;2.30;;
56233;SDS011;42141;53.240;6.580;2022-07-23T01:06:42;9.73;;;2.35;;
56233;SDS011;42141;53.240;6.580;2022-07-23T01:09:10;5.25;;;2.50;;
56233;SDS011;42141;53.240;6.580;2022-07-23T01:11:36;8.95;;;2.75;;
56233;SDS011;42141;53.240;6.580;2022-07-23T01:14:13;6.60;;;2.92;;
56233;SDS011;42141;53.240;6.580;2022-07-23T01:16:44;9.00;;;2.60;;
56233;SDS011;42141;53.240;6.580;2022-07-23T01:19:11;7.32;;;3.00;;
56233;SDS011;42141;53.240;6.580;2022-07-23T01:21:39;4.97;;;3.28;;
56233;SDS011;42141;53.240;6.580;2022-07-23T01:24:16;5.15;;;2.90;;
56233;SDS011;42141;53.240;6.580;2022-07-23T01:26:45;5.57;;;2.80;;
56233;SDS011;42141;53.240;6.580;2022-07-23T01:29:27;5.25;;;2.58;;
56233;SDS011;42141;53.240;6.580;2022-07-23T01:31:59;5.43;;;2.60;;
56233;SDS011;42141;53.240;6.580;2022-07-23T01:34:27;5.75;;;2.60;;
56233;SDS011;42141;53.240;6.580;2022-07-23T01:36:53;3.65;;;2.38;;
56233;SDS011;42141;53.240;6.580;2022-07-23T01:39:25;2.83;;;2.05;;
56233;SDS011;42141;53.240;6.580;2022-07-23T01:41:54;4.68;;;2.65;;
56233;SDS011;42141;53.240;6.580;2022-07-23T01:44:23;4.75;;;2.13;;
56233;SDS011;42141;53.240;6.580;2022-07-23T01:46:49;5.80;;;2.80;;
56233;SDS011;42141;53.240;6.580;2022-07-23T01:49:15;4.63;;;3.00;;
56233;SDS011;42141;53.240;6.580;2022-07-23T01:51:50;5.20;;;2.00;;
56233;SDS011;42141;53.240;6.580;2022-07-23T01:54:31;5.07;;;2.13;;
56233;SDS011;42141;53.240;6.580;2022-07-23T01:57:00;2.97;;;2.15;;
56233;SDS011;42141;53.240;6.580;2022-07-23T01:59:27;12.32;;;2.70;;
56233;SDS011;42141;53.240;6.580;2022-07-23T02:01:53;5.47;;;2.33;;
56233;SDS011;42141;53.240;6.580;2022-07-23T02:04:21;5.50;;;1.83;;
56233;SDS011;42141;53.240;6.580;2022-07-23T02:06:48;4.70;;;2.50;;
56233;SDS011;42141;53.240;6.580;2022-07-23T02:09:14;3.33;;;1.65;;
56233;SDS011;42141;53.240;6.580;2022-07-23T02:11:40;3.72;;;1.98;;
56233;SDS011;42141;53.240;6.580;2022-07-23T02:14:15;4.47;;;1.67;;
56233;SDS011;42141;53.240;6.580;2022-07-23T02:16:50;5.38;;;2.15;;
56233;SDS011;42141;53.240;6.580;2022-07-23T02:19:16;4.10;;;1.80;;
56233;SDS011;42141;53.240;6.580;2022-07-23T02:21:42;6.63;;;1.80;;
56233;SDS011;42141;53.240;6.580;2022-07-23T02:24:09;5.10;;;1.80;;
56233;SDS011;42141;53.240;6.580;2022-07-23T02:26:35;6.15;;;2.30;;
56233;SDS011;42141;53.240;6.580;2022-07-23T02:29:02;3.28;;;1.42;;
56233;SDS011;42141;53.240;6.580;2022-07-23T02:31:29;4.43;;;1.52;;
56233;SDS011;42141;53.240;6.580;2022-07-23T02:33:55;5.47;;;1.77;;
56233;SDS011;42141;53.240;6.580;2022-07-23T02:36:21;2.63;;;1.27;;
56233;SDS011;42141;53.240;6.580;2022-07-23T02:38:48;4.88;;;1.75;;
56233;SDS011;42141;53.240;6.580;2022-07-23T02:41:26;5.68;;;1.95;;
56233;SDS011;42141;53.240;6.580;2022-07-23T02:43:57;6.43;;;1.88;;
56233;SDS011;42141;53.240;6.580;2022-07-23T02:46:23;8.55;;;1.90;;
56233;SDS011;42141;53.240;6.580;2022-07-23T02:48:48;3.17;;;1.60;;
56233;SDS011;42141;53.240;6.580;2022-07-23T02:51:14;9.38;;;1.75;;
56233;SDS011;42141;53.240;6.580;2022-07-23T02:53:40;4.20;;;1.83;;
56233;SDS011;42141;53.240;6.580;2022-07-23T02:56:06;3.22;;;1.70;;
56233;SDS011;42141;53.240;6.580;2022-07-23T02:58:32;7.38;;;2.03;;
56233;SDS011;42141;53.240;6.580;2022-07-23T03:00:59;5.43;;;1.85;;
56233;SDS011;42141;53.240;6.580;2022-07-23T03:03:25;5.45;;;2.42;;
56233;SDS011;42141;53.240;6.580;2022-07-23T03:05:52;2.67;;;1.63;;
56233;SDS011;42141;53.240;6.580;2022-07-23T03:08:18;4.20;;;1.92;;
56233;SDS011;42141;53.240;6.580;2022-07-23T03:10:43;4.78;;;2.28;;
56233;SDS011;42141;53.240;6.580;2022-07-23T03:13:09;4.90;;;1.95;;
56233;SDS011;42141;53.240;6.580;2022-07-23T03:15:35;3.10;;;1.90;;
56233;SDS011;42141;53.240;6.580;2022-07-23T03:18:01;5.43;;;2.20;;
56233;SDS011;42141;53.240;6.580;2022-07-23T03:20:27;5.22;;;2.00;;
56233;SDS011;42141;53.240;6.580;2022-07-23T03:22:54;9.00;;;2.00;;
56233;SDS011;42141;53.240;6.580;2022-07-23T03:25:20;7.88;;;1.80;;
56233;SDS011;42141;53.240;6.580;2022-07-23T03:27:49;3.33;;;1.80;;
56233;SDS011;42141;53.240;6.580;2022-07-23T03:30:16;3.38;;;1.90;;
56233;SDS011;42141;53.240;6.580;2022-07-23T03:32:41;3.45;;;1.73;;
56233;SDS011;42141;53.240;6.580;2022-07-23T03:35:08;4.13;;;1.67;;
56233;SDS011;42141;53.240;6.580;2022-07-23T03:37:41;2.58;;;1.50;;
56233;SDS011;42141;53.240;6.580;2022-07-23T03:40:07;3.33;;;1.80;;
56233;SDS011;42141;53.240;6.580;2022-07-23T03:42:33;5.88;;;2.25;;
56233;SDS011;42141;53.240;6.580;2022-07-23T03:45:06;4.72;;;2.00;;
56233;SDS011;42141;53.240;6.580;2022-07-23T03:47:32;9.82;;;2.30;;
56233;SDS011;42141;53.240;6.580;2022-07-23T03:50:02;5.18;;;2.08;;
56233;SDS011;42141;53.240;6.580;2022-07-23T03:52:29;4.35;;;2.22;;
56233;SDS011;42141;53.240;6.580;2022-07-23T03:54:54;3.03;;;2.20;;
56233;SDS011;42141;53.240;6.580;2022-07-23T03:57:20;5.22;;;2.05;;
56233;SDS011;42141;53.240;6.580;2022-07-23T03:59:46;3.50;;;1.90;;
56233;SDS011;42141;53.240;6.580;2022-07-23T04:02:11;6.30;;;2.22;;
56233;SDS011;42141;53.240;6.580;2022-07-23T04:04:40;4.80;;;2.42;;
56233;SDS011;42141;53.240;6.580;2022-07-23T04:07:05;4.25;;;2.05;;
56233;SDS011;42141;53.240;6.580;2022-07-23T04:09:38;7.05;;;3.25;;
56233;SDS011;42141;53.240;6.580;2022-07-23T04:12:06;3.15;;;2.15;;
56233;SDS011;42141;53.240;6.580;2022-07-23T04:14:32;4.57;;;1.60;;
56233;SDS011;42141;53.240;6.580;2022-07-23T04:16:58;4.75;;;1.50;;
56233;SDS011;42141;53.240;6.580;2022-07-23T04:19:36;6.68;;;2.30;;
56233;SDS011;42141;53.240;6.580;2022-07-23T04:22:05;5.38;;;2.10;;
56233;SDS011;42141;53.240;6.580;2022-07-23T04:24:32;2.47;;;2.05;;
56233;SDS011;42141;53.240;6.580;2022-07-23T04:26:58;4.25;;;2.30;;
56233;SDS011;42141;53.240;6.580;2022-07-23T04:29:24;4.85;;;2.15;;
56233;SDS011;42141;53.240;6.580;2022-07-23T04:31:55;7.25;;;2.13;;
56233;SDS011;42141;53.240;6.580;2022-07-23T04:34:27;4.95;;;2.35;;
56233;SDS011;42141;53.240;6.580;2022-07-23T04:36:54;4.80;;;2.60;;
56233;SDS011;42141;53.240;6.580;2022-07-23T04:39:27;4.95;;;2.33;;
56233;SDS011;42141;53.240;6.580;2022-07-23T04:42:05;4.93;;;2.22;;
56233;SDS011;42141;53.240;6.580;2022-07-23T04:47:05;5.15;;;2.13;;
56233;SDS011;42141;53.240;6.580;2022-07-23T04:49:34;6.18;;;2.38;;
56233;SDS011;42141;53.240;6.580;2022-07-23T04:52:03;7.82;;;2.28;;
56233;SDS011;42141;53.240;6.580;2022-07-23T04:54:29;5.03;;;2.53;;
56233;SDS011;42141;53.240;6.580;2022-07-23T04:56:55;4.53;;;2.72;;
56233;SDS011;42141;53.240;6.580;2022-07-23T04:59:20;3.85;;;2.50;;
56233;SDS011;42141;53.240;6.580;2022-07-23T05:01:47;4.88;;;2.28;;
56233;SDS011;42141;53.240;6.580;2022-07-23T05:04:13;6.82;;;2.53;;
56233;SDS011;42141;53.240;6.580;2022-07-23T05:06:38;4.32;;;1.98;;
56233;SDS011;42141;53.240;6.580;2022-07-23T05:09:04;5.57;;;2.80;;
56233;SDS011;42141;53.240;6.580;2022-07-23T05:11:30;4.25;;;2.35;;
56233;SDS011;42141;53.240;6.580;2022-07-23T05:13:55;3.70;;;2.30;;
56233;SDS011;42141;53.240;6.580;2022-07-23T05:16:21;3.83;;;2.20;;
56233;SDS011;42141;53.240;6.580;2022-07-23T05:18:47;4.85;;;2.53;;
56233;SDS011;42141;53.240;6.580;2022-07-23T05:21:13;4.80;;;1.98;;
56233;SDS011;42141;53.240;6.580;2022-07-23T05:23:38;4.72;;;2.17;;
56233;SDS011;42141;53.240;6.580;2022-07-23T05:26:04;7.28;;;2.35;;
56233;SDS011;42141;53.240;6.580;2022-07-23T05:28:30;3.15;;;2.13;;
56233;SDS011;42141;53.240;6.580;2022-07-23T05:30:55;4.22;;;2.38;;
56233;SDS011;42141;53.240;6.580;2022-07-23T05:33:21;4.65;;;2.05;;
56233;SDS011;42141;53.240;6.580;2022-07-23T05:35:47;6.50;;;2.10;;
56233;SDS011;42141;53.240;6.580;2022-07-23T05:38:13;5.93;;;2.15;;
56233;SDS011;42141;53.240;6.580;2022-07-23T05:40:38;5.00;;;1.80;;
56233;SDS011;42141;53.240;6.580;2022-07-23T05:43:04;2.95;;;1.80;;
56233;SDS011;42141;53.240;6.580;2022-07-23T05:45:30;9.25;;;3.10;;
56233;SDS011;42141;53.240;6.580;2022-07-23T05:47:56;3.70;;;1.85;;
56233;SDS011;42141;53.240;6.580;2022-07-23T05:50:21;4.50;;;1.55;;
56233;SDS011;42141;53.240;6.580;2022-07-23T05:52:47;4.47;;;2.45;;
56233;SDS011;42141;53.240;6.580;2022-07-23T05:55:13;4.63;;;1.50;;
56233;SDS011;42141;53.240;6.580;2022-07-23T05:57:39;1.92;;;1.45;;
56233;SDS011;42141;53.240;6.580;2022-07-23T06:00:07;3.63;;;1.67;;
56233;SDS011;42141;53.240;6.580;2022-07-23T06:02:34;2.17;;;1.40;;
56233;SDS011;42141;53.240;6.580;2022-07-23T06:05:00;2.25;;;1.30;;
56233;SDS011;42141;53.240;6.580;2022-07-23T06:07:26;1.90;;;1.20;;
56233;SDS011;42141;53.240;6.580;2022-07-23T06:09:52;2.85;;;1.48;;
56233;SDS011;42141;53.240;6.580;2022-07-23T06:12:18;2.45;;;1.65;;
56233;SDS011;42141;53.240;6.580;2022-07-23T06:14:43;6.28;;;1.48;;
56233;SDS011;42141;53.240;6.580;2022-07-23T06:17:17;4.28;;;1.70;;
56233;SDS011;42141;53.240;6.580;2022-07-23T06:19:43;6.28;;;3.03;;
56233;SDS011;42141;53.240;6.580;2022-07-23T06:22:09;2.25;;;1.17;;
56233;SDS011;42141;53.240;6.580;2022-07-23T06:24:35;3.13;;;1.42;;
56233;SDS011;42141;53.240;6.580;2022-07-23T06:27:01;6.18;;;1.00;;
56233;SDS011;42141;53.240;6.580;2022-07-23T06:29:26;2.40;;;0.93;;
56233;SDS011;42141;53.240;6.580;2022-07-23T06:31:52;2.33;;;1.05;;
56233;SDS011;42141;53.240;6.580;2022-07-23T06:34:18;7.65;;;1.10;;
56233;SDS011;42141;53.240;6.580;2022-07-23T06:36:43;2.10;;;1.00;;
56233;SDS011;42141;53.240;6.580;2022-07-23T06:39:09;1.40;;;0.60;;
56233;SDS011;42141;53.240;6.580;2022-07-23T06:41:35;3.33;;;0.80;;
56233;SDS011;42141;53.240;6.580;2022-07-23T06:44:01;1.35;;;0.90;;
56233;SDS011;42141;53.240;6.580;2022-07-23T06:46:26;1.75;;;0.70;;
56233;SDS011;42141;53.240;6.580;2022-07-23T06:48:52;1.90;;;0.65;;
56233;SDS011;42141;53.240;6.580;2022-07-23T06:51:18;2.15;;;0.60;;
56233;SDS011;42141;53.240;6.580;2022-07-23T06:53:44;2.80;;;0.98;;
56233;SDS011;42141;53.240;6.580;2022-07-23T06:56:09;1.75;;;0.52;;
56233;SDS011;42141;53.240;6.580;2022-07-23T06:58:35;1.85;;;0.43;;
56233;SDS011;42141;53.240;6.580;2022-07-23T07:01:01;1.75;;;0.90;;
56233;SDS011;42141;53.240;6.580;2022-07-23T07:03:27;2.75;;;0.55;;
56233;SDS011;42141;53.240;6.580;2022-07-23T07:05:53;2.85;;;0.68;;
56233;SDS011;42141;53.240;6.580;2022-07-23T07:08:19;0.85;;;0.60;;
56233;SDS011;42141;53.240;6.580;2022-07-23T07:10:45;1.25;;;0.60;;
56233;SDS011;42141;53.240;6.580;2022-07-23T07:13:11;5.57;;;0.90;;
56233;SDS011;42141;53.240;6.580;2022-07-23T07:15:37;1.25;;;0.38;;
56233;SDS011;42141;53.240;6.580;2022-07-23T07:18:03;0.95;;;0.70;;
56233;SDS011;42141;53.240;6.580;2022-07-23T07:20:29;1.77;;;0.60;;
56233;SDS011;42141;53.240;6.580;2022-07-23T07:22:54;1.23;;;0.70;;
56233;SDS011;42141;53.240;6.580;2022-07-23T07:25:20;0.82;;;0.32;;
56233;SDS011;42141;53.240;6.580;2022-07-23T07:27:46;2.47;;;0.50;;
56233;SDS011;42141;53.240;6.580;2022-07-23T07:30:12;0.73;;;0.28;;
56233;SDS011;42141;53.240;6.580;2022-07-23T07:32:38;1.60;;;0.20;;
56233;SDS011;42141;53.240;6.580;2022-07-23T07:35:04;1.17;;;0.15;;
56233;SDS011;42141;53.240;6.580;2022-07-23T07:37:30;0.20;;;0.10;;
56233;SDS011;42141;53.240;6.580;2022-07-23T07:39:56;0.57;;;0.28;;
56233;SDS011;42141;53.240;6.580;2022-07-23T07:42:22;0.75;;;0.20;;
56233;SDS011;42141;53.240;6.580;2022-07-23T07:44:48;0.40;;;0.20;;
56233;SDS011;42141;53.240;6.580;2022-07-23T07:47:14;1.65;;;0.30;;
56233;SDS011;42141;53.240;6.580;2022-07-23T07:49:43;1.27;;;0.25;;
56233;SDS011;42141;53.240;6.580;2022-07-23T07:52:09;2.80;;;0.28;;
56233;SDS011;42141;53.240;6.580;2022-07-23T07:54:37;1.30;;;0.20;;
56233;SDS011;42141;53.240;6.580;2022-07-23T07:57:03;4.68;;;0.40;;
56233;SDS011;42141;53.240;6.580;2022-07-23T07:59:29;4.97;;;0.52;;
56233;SDS011;42141;53.240;6.580;2022-07-23T08:01:54;0.38;;;0.28;;
56233;SDS011;42141;53.240;6.580;2022-07-23T08:04:20;1.70;;;0.22;;
56233;SDS011;42141;53.240;6.580;2022-07-23T08:06:46;0.77;;;0.20;;
56233;SDS011;42141;53.240;6.580;2022-07-23T08:09:12;3.75;;;0.30;;
56233;SDS011;42141;53.240;6.580;2022-07-23T08:11:37;1.55;;;0.20;;
56233;SDS011;42141;53.240;6.580;2022-07-23T08:14:06;1.75;;;0.40;;
56233;SDS011;42141;53.240;6.580;2022-07-23T08:16:32;1.75;;;0.20;;
56233;SDS011;42141;53.240;6.580;2022-07-23T08:18:58;1.27;;;0.10;;
56233;SDS011;42141;53.240;6.580;2022-07-23T08:21:23;1.48;;;0.20;;
56233;SDS011;42141;53.240;6.580;2022-07-23T08:23:49;0.63;;;0.17;;
56233;SDS011;42141;53.240;6.580;2022-07-23T08:26:15;0.65;;;0.30;;
56233;SDS011;42141;53.240;6.580;2022-07-23T08:28:41;0.40;;;0.17;;
56233;SDS011;42141;53.240;6.580;2022-07-23T08:31:07;0.65;;;0.15;;
56233;SDS011;42141;53.240;6.580;2022-07-23T08:33:32;0.25;;;0.10;;
56233;SDS011;42141;53.240;6.580;2022-07-23T08:35:58;3.00;;;0.30;;
56233;SDS011;42141;53.240;6.580;2022-07-23T08:38:25;0.55;;;0.20;;
56233;SDS011;42141;53.240;6.580;2022-07-23T08:40:52;2.47;;;0.17;;
56233;SDS011;42141;53.240;6.580;2022-07-23T08:43:22;1.00;;;0.17;;
56233;SDS011;42141;53.240;6.580;2022-07-23T08:45:50;0.95;;;0.20;;
56233;SDS011;42141;53.240;6.580;2022-07-23T08:48:18;0.30;;;0.30;;
56233;SDS011;42141;53.240;6.580;2022-07-23T08:50:47;0.38;;;0.10;;
56233;SDS011;42141;53.240;6.580;2022-07-23T08:53:16;1.35;;;0.20;;
56233;SDS011;42141;53.240;6.580;2022-07-23T08:55:43;0.55;;;0.20;;
56233;SDS011;42141;53.240;6.580;2022-07-23T08:58:10;1.10;;;0.20;;
56233;SDS011;42141;53.240;6.580;2022-07-23T09:00:37;2.15;;;0.30;;
56233;SDS011;42141;53.240;6.580;2022-07-23T09:03:02;1.13;;;0.25;;
56233;SDS011;42141;53.240;6.580;2022-07-23T09:05:28;0.77;;;0.17;;
56233;SDS011;42141;53.240;6.580;2022-07-23T09:10:29;0.88;;;0.17;;
56233;SDS011;42141;53.240;6.580;2022-07-23T09:12:56;0.85;;;0.20;;
56233;SDS011;42141;53.240;6.580;2022-07-23T09:15:22;0.95;;;0.10;;
56233;SDS011;42141;53.240;6.580;2022-07-23T09:17:48;1.15;;;0.22;;
56233;SDS011;42141;53.240;6.580;2022-07-23T09:20:14;1.33;;;0.20;;
56233;SDS011;42141;53.240;6.580;2022-07-23T09:22:45;0.35;;;0.10;;
56233;SDS011;42141;53.240;6.580;2022-07-23T09:25:13;0.47;;;0.20;;
56233;SDS011;42141;53.240;6.580;2022-07-23T09:30:27;0.13;;;0.10;;
56233;SDS011;42141;53.240;6.580;2022-07-23T09:38:25;1.10;;;0.10;;
56233;SDS011;42141;53.240;6.580;2022-07-23T09:41:07;0.63;;;0.20;;
56233;SDS011;42141;53.240;6.580;2022-07-23T09:43:36;2.85;;;0.32;;
56233;SDS011;42141;53.240;6.580;2022-07-23T09:48:53;2.50;;;0.20;;
56233;SDS011;42141;53.240;6.580;2022-07-23T09:51:22;1.83;;;0.30;;
56233;SDS011;42141;53.240;6.580;2022-07-23T09:57:02;2.47;;;0.40;;
56233;SDS011;42141;53.240;6.580;2022-07-23T09:59:45;0.57;;;0.20;;
56233;SDS011;42141;53.240;6.580;2022-07-23T10:02:12;0.68;;;0.22;;
56233;SDS011;42141;53.240;6.580;2022-07-23T10:04:40;0.75;;;0.20;;
56233;SDS011;42141;53.240;6.580;2022-07-23T10:07:08;2.45;;;0.47;;
56233;SDS011;42141;53.240;6.580;2022-07-23T10:09:36;0.32;;;0.15;;
56233;SDS011;42141;53.240;6.580;2022-07-23T10:12:04;1.00;;;0.20;;
56233;SDS011;42141;53.240;6.580;2022-07-23T10:14:38;0.82;;;0.20;;
56233;SDS011;42141;53.240;6.580;2022-07-23T10:17:05;1.45;;;0.30;;
56233;SDS011;42141;53.240;6.580;2022-07-23T10:19:32;1.13;;;0.20;;
56233;SDS011;42141;53.240;6.580;2022-07-23T10:22:00;1.75;;;0.22;;
56233;SDS011;42141;53.240;6.580;2022-07-23T10:27:44;3.92;;;0.40;;
56233;SDS011;42141;53.240;6.580;2022-07-23T10:39:33;0.85;;;0.13;;
56233;SDS011;42141;53.240;6.580;2022-07-23T10:42:09;0.50;;;0.30;;
56233;SDS011;42141;53.240;6.580;2022-07-23T10:44:38;0.85;;;0.28;;
56233;SDS011;42141;53.240;6.580;2022-07-23T10:47:08;0.80;;;0.20;;
56233;SDS011;42141;53.240;6.580;2022-07-23T10:49:47;4.05;;;0.47;;
56233;SDS011;42141;53.240;6.580;2022-07-23T10:57:28;1.63;;;0.25;;
56233;SDS011;42141;53.240;6.580;2022-07-23T11:02:33;1.33;;;0.57;;
56233;SDS011;42141;53.240;6.580;2022-07-23T11:08:13;1.67;;;0.75;;
56233;SDS011;42141;53.240;6.580;2022-07-23T11:10:50;4.78;;;0.65;;
56233;SDS011;42141;53.240;6.580;2022-07-23T11:13:40;2.20;;;0.50;;
56233;SDS011;42141;53.240;6.580;2022-07-23T11:34:48;3.65;;;0.38;;
56233;SDS011;42141;53.240;6.580;2022-07-23T11:37:32;1.63;;;0.30;;
56233;SDS011;42141;53.240;6.580;2022-07-23T11:39:59;0.70;;;0.40;;
56233;SDS011;42141;53.240;6.580;2022-07-23T11:42:25;6.28;;;0.75;;
56233;SDS011;42141;53.240;6.580;2022-07-23T11:45:01;1.80;;;0.40;;
56233;SDS011;42141;53.240;6.580;2022-07-23T11:47:46;2.28;;;0.68;;
56233;SDS011;42141;53.240;6.580;2022-07-23T11:50:22;0.30;;;0.20;;
56233;SDS011;42141;53.240;6.580;2022-07-23T11:52:49;1.40;;;0.40;;
56233;SDS011;42141;53.240;6.580;2022-07-23T11:55:15;1.30;;;0.40;;
56233;SDS011;42141;53.240;6.580;2022-07-23T11:57:42;2.08;;;0.40;;
56233;SDS011;42141;53.240;6.580;2022-07-23T12:00:15;2.67;;;0.50;;
56233;SDS011;42141;53.240;6.580;2022-07-23T12:02:48;0.70;;;0.20;;
56233;SDS011;42141;53.240;6.580;2022-07-23T12:05:23;1.27;;;0.30;;
56233;SDS011;42141;53.240;6.580;2022-07-23T12:07:51;1.25;;;0.60;;
56233;SDS011;42141;53.240;6.580;2022-07-23T12:10:23;3.15;;;0.40;;
56233;SDS011;42141;53.240;6.580;2022-07-23T12:12:55;1.50;;;0.35;;
56233;SDS011;42141;53.240;6.580;2022-07-23T12:15:30;2.08;;;0.60;;
56233;SDS011;42141;53.240;6.580;2022-07-23T12:18:04;3.53;;;0.35;;
56233;SDS011;42141;53.240;6.580;2022-07-23T12:20:36;1.95;;;0.40;;
56233;SDS011;42141;53.240;6.580;2022-07-23T12:23:07;3.45;;;0.55;;
56233;SDS011;42141;53.240;6.580;2022-07-23T12:25:36;2.40;;;0.35;;
56233;SDS011;42141;53.240;6.580;2022-07-23T12:28:11;0.60;;;0.30;;
56233;SDS011;42141;53.240;6.580;2022-07-23T12:30:49;2.90;;;0.57;;
56233;SDS011;42141;53.240;6.580;2022-07-23T12:36:10;1.15;;;0.30;;
56233;SDS011;42141;53.240;6.580;2022-07-23T12:38:38;0.30;;;0.20;;
56233;SDS011;42141;53.240;6.580;2022-07-23T12:41:08;1.45;;;0.32;;
56233;SDS011;42141;53.240;6.580;2022-07-23T12:43:38;1.88;;;0.70;;
56233;SDS011;42141;53.240;6.580;2022-07-23T12:46:16;1.60;;;0.35;;
56233;SDS011;42141;53.240;6.580;2022-07-23T12:51:18;1.08;;;0.28;;
56233;SDS011;42141;53.240;6.580;2022-07-23T12:53:50;2.20;;;0.45;;
56233;SDS011;42141;53.240;6.580;2022-07-23T12:56:28;3.55;;;0.52;;
56233;SDS011;42141;53.240;6.580;2022-07-23T13:01:30;1.10;;;0.45;;
56233;SDS011;42141;53.240;6.580;2022-07-23T13:04:07;1.08;;;0.43;;
56233;SDS011;42141;53.240;6.580;2022-07-23T13:06:52;1.85;;;0.35;;
56233;SDS011;42141;53.240;6.580;2022-07-23T13:09:20;0.98;;;0.32;;
56233;SDS011;42141;53.240;6.580;2022-07-23T13:11:49;1.45;;;0.38;;
56233;SDS011;42141;53.240;6.580;2022-07-23T13:14:16;2.75;;;0.50;;
56233;SDS011;42141;53.240;6.580;2022-07-23T13:16:44;1.30;;;0.50;;
56233;SDS011;42141;53.240;6.580;2022-07-23T13:19:10;1.38;;;0.80;;
56233;SDS011;42141;53.240;6.580;2022-07-23T13:21:37;3.85;;;0.70;;
56233;SDS011;42141;53.240;6.580;2022-07-23T13:24:03;2.47;;;0.57;;
56233;SDS011;42141;53.240;6.580;2022-07-23T13:26:29;1.65;;;0.40;;
56233;SDS011;42141;53.240;6.580;2022-07-23T13:28:55;1.40;;;0.28;;
56233;SDS011;42141;53.240;6.580;2022-07-23T13:31:21;1.23;;;0.50;;
56233;SDS011;42141;53.240;6.580;2022-07-23T13:33:47;3.22;;;0.68;;
56233;SDS011;42141;53.240;6.580;2022-07-23T13:36:13;2.85;;;0.50;;
56233;SDS011;42141;53.240;6.580;2022-07-23T13:38:39;1.02;;;0.40;;
56233;SDS011;42141;53.240;6.580;2022-07-23T13:41:05;0.50;;;0.30;;
56233;SDS011;42141;53.240;6.580;2022-07-23T13:43:32;1.70;;;0.40;;
56233;SDS011;42141;53.240;6.580;2022-07-23T13:45:58;1.23;;;0.43;;
56233;SDS011;42141;53.240;6.580;2022-07-23T13:48:24;1.65;;;0.50;;
56233;SDS011;42141;53.240;6.580;2022-07-23T13:50:53;2.88;;;0.50;;
56233;SDS011;42141;53.240;6.580;2022-07-23T13:53:20;1.65;;;0.80;;
56233;SDS011;42141;53.240;6.580;2022-07-23T13:55:48;0.63;;;0.32;;
56233;SDS011;42141;53.240;6.580;2022-07-23T13:58:15;3.67;;;0.50;;
56233;SDS011;42141;53.240;6.580;2022-07-23T14:00:43;4.20;;;0.40;;
56233;SDS011;42141;53.240;6.580;2022-07-23T14:03:11;0.82;;;0.38;;
56233;SDS011;42141;53.240;6.580;2022-07-23T14:05:38;3.95;;;0.45;;
56233;SDS011;42141;53.240;6.580;2022-07-23T14:08:04;1.50;;;0.38;;
56233;SDS011;42141;53.240;6.580;2022-07-23T14:10:30;4.90;;;0.57;;
56233;SDS011;42141;53.240;6.580;2022-07-23T14:12:56;3.05;;;0.35;;
56233;SDS011;42141;53.240;6.580;2022-07-23T14:15:24;2.75;;;0.98;;
56233;SDS011;42141;53.240;6.580;2022-07-23T14:17:55;0.90;;;0.45;;
56233;SDS011;42141;53.240;6.580;2022-07-23T14:20:22;0.98;;;0.40;;
56233;SDS011;42141;53.240;6.580;2022-07-23T14:22:48;1.63;;;0.63;;
56233;SDS011;42141;53.240;6.580;2022-07-23T14:25:18;3.40;;;0.70;;
56233;SDS011;42141;53.240;6.580;2022-07-23T14:27:44;2.67;;;0.47;;
56233;SDS011;42141;53.240;6.580;2022-07-23T14:30:10;2.25;;;0.52;;
56233;SDS011;42141;53.240;6.580;2022-07-23T14:32:37;4.63;;;0.50;;
56233;SDS011;42141;53.240;6.580;2022-07-23T14:35:03;4.45;;;0.35;;
56233;SDS011;42141;53.240;6.580;2022-07-23T14:37:30;2.40;;;0.57;;
56233;SDS011;42141;53.240;6.580;2022-07-23T14:39:55;2.45;;;0.40;;
56233;SDS011;42141;53.240;6.580;2022-07-23T14:42:21;2.90;;;0.95;;
56233;SDS011;42141;53.240;6.580;2022-07-23T14:44:47;5.60;;;0.50;;
56233;SDS011;42141;53.240;6.580;2022-07-23T14:47:13;1.85;;;0.45;;
56233;SDS011;42141;53.240;6.580;2022-07-23T14:49:38;1.25;;;0.40;;
56233;SDS011;42141;53.240;6.580;2022-07-23T14:52:04;4.03;;;0.40;;
56233;SDS011;42141;53.240;6.580;2022-07-23T14:54:31;1.65;;;0.47;;
56233;SDS011;42141;53.240;6.580;2022-07-23T14:56:58;3.65;;;0.60;;
56233;SDS011;42141;53.240;6.580;2022-07-23T14:59:25;2.95;;;0.82;;
56233;SDS011;42141;53.240;6.580;2022-07-23T15:01:52;1.30;;;0.45;;
56233;SDS011;42141;53.240;6.580;2022-07-23T15:04:18;2.05;;;0.30;;
56233;SDS011;42141;53.240;6.580;2022-07-23T15:06:44;2.65;;;0.52;;
56233;SDS011;42141;53.240;6.580;2022-07-23T15:09:10;6.88;;;0.73;;
56233;SDS011;42141;53.240;6.580;2022-07-23T15:11:36;2.22;;;0.68;;
56233;SDS011;42141;53.240;6.580;2022-07-23T15:14:06;2.40;;;0.47;;
56233;SDS011;42141;53.240;6.580;2022-07-23T15:16:32;2.58;;;0.52;;
56233;SDS011;42141;53.240;6.580;2022-07-23T15:18:58;0.75;;;0.30;;
56233;SDS011;42141;53.240;6.580;2022-07-23T15:21:24;4.13;;;1.00;;
56233;SDS011;42141;53.240;6.580;2022-07-23T15:23:50;3.63;;;0.50;;
56233;SDS011;42141;53.240;6.580;2022-07-23T15:26:20;2.28;;;0.40;;
56233;SDS011;42141;53.240;6.580;2022-07-23T15:28:48;0.70;;;0.52;;
56233;SDS011;42141;53.240;6.580;2022-07-23T15:31:13;3.15;;;0.65;;
56233;SDS011;42141;53.240;6.580;2022-07-23T15:33:39;4.60;;;0.98;;
56233;SDS011;42141;53.240;6.580;2022-07-23T15:36:05;3.40;;;0.60;;
56233;SDS011;42141;53.240;6.580;2022-07-23T15:38:31;1.55;;;0.50;;
56233;SDS011;42141;53.240;6.580;2022-07-23T15:40:57;1.63;;;0.60;;
56233;SDS011;42141;53.240;6.580;2022-07-23T15:43:23;2.42;;;0.40;;
56233;SDS011;42141;53.240;6.580;2022-07-23T15:45:50;0.55;;;0.40;;
56233;SDS011;42141;53.240;6.580;2022-07-23T15:48:17;1.30;;;0.45;;
56233;SDS011;42141;53.240;6.580;2022-07-23T15:50:45;3.55;;;0.40;;
56233;SDS011;42141;53.240;6.580;2022-07-23T15:53:11;0.55;;;0.50;;
56233;SDS011;42141;53.240;6.580;2022-07-23T15:55:38;2.85;;;0.60;;
56233;SDS011;42141;53.240;6.580;2022-07-23T15:58:04;3.65;;;0.60;;
56233;SDS011;42141;53.240;6.580;2022-07-23T16:00:30;1.88;;;0.82;;